Time;durP1;ratioP1;P1;durP2;ratioP2;P2;SDS_P1;SDS_P2;PMS_P1;PMS_P2;Temp;Humidity;BMP_temperature;BMP_pressure;BME280_temperature;BME280_humidity;BME280_pressure;Samples;Min_cycle;Max_cycle;Signal;HPM_P1;HPM_P2
2022/10/19 00:00:25;;;;;;;13.93;10.57;;;;;;;8.38;50.73;95541.22;5086761;28;20414;-66
2022/10/19 00:02:51;;;;;;;11.57;9.30;;;;;;;8.47;50.47;95537.03;5088994;28;20258;-68
2022/10/19 00:05:16;;;;;;;11.30;9.02;;;;;;;8.47;50.63;95538.81;5084494;28;20188;-68
2022/10/19 00:07:42;;;;;;;13.18;9.55;;;;;;;8.36;50.77;95539.69;5081481;28;20200;-67
2022/10/19 00:10:10;;;;;;;12.13;9.87;;;;;;;8.25;51.72;95530.06;5071159;28;20205;-66
2022/10/19 00:12:36;;;;;;;11.37;9.07;;;;;;;8.23;52.11;95529.34;5078603;28;20191;-68
2022/10/19 00:15:02;;;;;;;13.43;9.77;;;;;;;8.19;52.46;95527.97;5090689;28;20192;-68
2022/10/19 00:17:28;;;;;;;14.00;9.38;;;;;;;8.15;52.58;95532.63;5077431;28;20193;-68
2022/10/19 00:19:53;;;;;;;10.60;9.00;;;;;;;8.11;52.50;95528.56;5085493;28;20198;-68
2022/10/19 00:22:19;;;;;;;10.30;8.70;;;;;;;8.01;53.11;95529.44;5081470;28;20241;-68
2022/10/19 00:24:45;;;;;;;12.13;8.38;;;;;;;7.93;53.24;95525.63;5088410;28;20187;-68
2022/10/19 00:27:10;;;;;;;11.52;8.40;;;;;;;7.99;52.87;95515.63;5089364;28;20189;-69
2022/10/19 00:29:35;;;;;;;9.75;8.18;;;;;;;7.98;53.07;95511.38;5089858;28;20199;-68
2022/10/19 00:32:01;;;;;;;11.00;8.70;;;;;;;7.80;54.03;95508.41;5084051;28;20321;-68
2022/10/19 00:34:26;;;;;;;10.77;8.38;;;;;;;7.67;54.71;95505.94;5090454;28;20212;-68
2022/10/19 00:36:52;;;;;;;10.85;7.88;;;;;;;7.66;54.17;95507.75;5082413;28;20189;-68
2022/10/19 00:39:18;;;;;;;10.73;8.25;;;;;;;7.46;55.25;95501.47;5081406;28;20180;-68
2022/10/19 00:41:45;;;;;;;13.50;8.50;;;;;;;7.60;54.82;95489.09;5088328;28;20203;-67
2022/10/19 00:44:11;;;;;;;10.65;7.75;;;;;;;7.73;54.14;95482.75;5084727;28;20195;-67
2022/10/19 00:46:39;;;;;;;11.02;8.77;;;;;;;7.85;53.74;95486.16;5082504;28;20200;-67
2022/10/19 00:49:23;;;;;;;10.50;7.83;;;;;;;7.85;53.44;95477.47;5084239;28;20204;-67
2022/10/19 00:51:53;;;;;;;10.88;7.97;;;;;;;7.61;54.32;95485.50;5081304;28;20207;-67
2022/10/19 00:54:19;;;;;;;8.73;7.68;;;;;;;7.55;54.54;95473.75;5084024;28;20210;-67
2022/10/19 00:56:48;;;;;;;11.43;8.65;;;;;;;7.59;54.08;95472.56;5082179;28;20279;-67
2022/10/19 00:59:17;;;;;;;11.82;7.90;;;;;;;7.53;54.21;95473.03;5086689;28;20245;-67
2022/10/19 01:01:44;;;;;;;11.43;7.97;;;;;;;7.55;54.39;95465.88;5080734;28;20199;-67
2022/10/19 01:04:11;;;;;;;11.30;8.20;;;;;;;7.47;54.62;95463.88;5086941;28;20207;-67
2022/10/19 01:06:38;;;;;;;13.65;8.63;;;;;;;7.45;53.78;95459.72;5087939;28;20292;-67
2022/10/19 01:09:03;;;;;;;9.70;8.33;;;;;;;7.48;53.73;95455.09;5082498;28;20207;-67
2022/10/19 01:11:38;;;;;;;13.07;8.20;;;;;;;7.66;52.91;95463.25;5079383;28;20189;-67
2022/10/19 01:14:40;;;;;;;10.35;8.50;;;;;;;7.62;52.76;95461.00;5080112;28;20191;-68
2022/10/19 01:17:26;;;;;;;12.97;8.90;;;;;;;7.32;53.72;95459.84;5086893;28;20642;-66
2022/10/19 01:20:14;;;;;;;18.67;9.03;;;;;;;7.27;54.27;95451.53;5067574;28;20264;-67
2022/10/19 01:23:05;;;;;;;10.50;8.15;;;;;;;7.39;53.53;95449.75;5084506;28;20181;-67
2022/10/19 01:25:46;;;;;;;10.17;8.13;;;;;;;7.42;53.70;95449.50;5011053;28;20194;-67
2022/10/19 01:28:29;;;;;;;11.23;8.17;;;;;;;7.21;54.16;95446.78;5010452;28;20285;-66
2022/10/19 01:31:08;;;;;;;10.77;8.00;;;;;;;7.28;53.77;95446.19;5009716;28;20202;-66
2022/10/19 01:33:45;;;;;;;9.03;7.60;;;;;;;7.39;54.01;95442.72;5021004;28;20238;-67
2022/10/19 01:36:39;;;;;;;8.60;7.47;;;;;;;7.20;54.77;95437.28;5005275;28;20201;-67
2022/10/19 01:39:21;;;;;;;10.45;7.60;;;;;;;7.14;55.49;95435.16;5006146;28;20190;-67
2022/10/19 01:42:08;;;;;;;10.33;7.27;;;;;;;6.93;56.33;95433.28;5026600;28;20190;-67
2022/10/19 01:44:34;;;;;;;10.57;6.80;;;;;;;7.11;55.54;95435.38;5025880;28;20197;-67
2022/10/19 01:47:03;;;;;;;9.20;7.00;;;;;;;7.20;55.35;95421.59;5027733;28;20198;-67
2022/10/19 01:49:40;;;;;;;9.67;7.10;;;;;;;7.19;55.25;95419.91;5011932;28;20225;-67
2022/10/19 01:52:08;;;;;;;9.60;6.75;;;;;;;7.01;55.60;95424.84;5024569;28;20195;-67
2022/10/19 01:54:39;;;;;;;7.47;6.63;;;;;;;7.03;55.68;95429.00;5025071;28;20205;-67
2022/10/19 01:57:08;;;;;;;10.77;6.93;;;;;;;6.92;55.89;95425.53;5021544;28;20198;-67
2022/10/19 01:59:35;;;;;;;7.82;7.03;;;;;;;7.02;55.55;95423.88;5006023;28;20191;-67
2022/10/19 02:02:03;;;;;;;9.23;6.80;;;;;;;6.73;56.54;95428.75;5037039;28;20208;-67
2022/10/19 02:04:31;;;;;;;14.43;7.67;;;;;;;6.62;56.84;95421.72;5082801;28;20204;-67
2022/10/19 02:06:57;;;;;;;9.60;6.77;;;;;;;6.68;56.44;95420.41;5085316;28;20249;-67
2022/10/19 02:09:23;;;;;;;10.13;7.18;;;;;;;6.77;56.23;95422.34;5086171;28;20291;-66
2022/10/19 02:11:52;;;;;;;10.90;6.97;;;;;;;6.82;55.90;95421.03;5083349;28;20188;-67
2022/10/19 02:14:21;;;;;;;10.83;7.23;;;;;;;6.82;55.26;95420.22;5088732;28;20204;-67
2022/10/19 02:16:53;;;;;;;13.68;7.30;;;;;;;6.89;54.85;95417.94;5085866;28;20181;-66
2022/10/19 02:19:20;;;;;;;10.80;6.70;;;;;;;6.95;55.09;95422.69;5103969;28;20189;-67
2022/10/19 02:21:46;;;;;;;8.82;6.95;;;;;;;6.88;54.96;95419.72;5088644;28;20338;-67
2022/10/19 02:24:11;;;;;;;7.93;5.87;;;;;;;6.85;54.58;95415.56;5088723;28;20308;-67
2022/10/19 02:26:38;;;;;;;8.65;6.85;;;;;;;6.76;54.77;95415.44;5091076;28;20202;-66
2022/10/19 02:29:04;;;;;;;10.03;6.50;;;;;;;6.77;54.64;95411.88;5090857;28;20216;-68
2022/10/19 02:31:30;;;;;;;8.53;6.20;;;;;;;6.83;54.07;95414.84;5085507;28;20192;-68
2022/10/19 02:33:55;;;;;;;9.27;6.00;;;;;;;6.58;54.51;95418.53;5091196;28;20279;-68
2022/10/19 02:36:21;;;;;;;8.17;5.33;;;;;;;6.52;54.62;95405.94;5092991;28;20191;-69
2022/10/19 02:38:47;;;;;;;6.97;5.37;;;;;;;6.46;54.83;95410.78;5088489;28;20185;-67
2022/10/19 02:41:18;;;;;;;8.00;5.53;;;;;;;6.50;54.71;95404.41;5089954;28;20208;-67
2022/10/19 02:43:48;;;;;;;6.07;4.87;;;;;;;6.39;55.01;95415.66;5066021;28;20302;-67
2022/10/19 02:46:25;;;;;;;6.40;5.20;;;;;;;6.52;54.72;95407.69;5092465;28;20199;-68
2022/10/19 02:48:51;;;;;;;6.93;5.53;;;;;;;6.43;54.81;95409.25;5088019;28;20242;-68
2022/10/19 02:51:38;;;;;;;9.57;5.53;;;;;;;6.58;54.56;95402.84;5089690;28;20311;-68
2022/10/19 02:54:05;;;;;;;9.33;6.20;;;;;;;6.50;54.66;95404.41;5085363;28;20194;-67
2022/10/19 02:56:32;;;;;;;8.77;6.03;;;;;;;6.68;54.70;95407.34;5092904;28;20212;-67
2022/10/19 02:58:58;;;;;;;8.63;6.40;;;;;;;6.65;54.93;95403.19;5089938;28;20220;-67
2022/10/19 03:01:23;;;;;;;7.23;6.10;;;;;;;6.54;55.46;95392.75;5086736;28;20216;-67
2022/10/19 03:03:49;;;;;;;10.73;6.00;;;;;;;6.58;55.60;95397.63;5085288;28;20194;-67
2022/10/19 03:06:15;;;;;;;7.93;5.80;;;;;;;6.36;56.00;95398.44;5092073;28;20184;-67
2022/10/19 03:08:40;;;;;;;10.87;6.10;;;;;;;6.34;56.60;95395.09;5089053;28;20287;-67
2022/10/19 03:11:05;;;;;;;11.43;6.93;;;;;;;6.39;56.23;95392.97;5085946;28;20263;-67
2022/10/19 03:13:31;;;;;;;9.90;6.27;;;;;;;6.28;56.68;95399.94;5086845;28;20187;-67
2022/10/19 03:15:56;;;;;;;9.70;7.00;;;;;;;6.34;56.49;95404.72;5085974;28;20219;-67
2022/10/19 03:18:22;;;;;;;11.67;6.50;;;;;;;6.23;56.88;95396.84;5071321;28;20192;-67
2022/10/19 03:20:47;;;;;;;8.60;5.83;;;;;;;6.19;57.44;95407.53;5088945;28;20239;-67
2022/10/19 03:23:13;;;;;;;7.90;6.90;;;;;;;6.28;57.31;95410.41;5088395;28;20279;-67
2022/10/19 03:25:38;;;;;;;8.83;6.27;;;;;;;5.97;58.19;95407.47;5083414;28;20249;-67
2022/10/19 03:28:04;;;;;;;6.93;6.23;;;;;;;5.85;58.48;95405.75;5089543;28;20272;-67
2022/10/19 03:30:29;;;;;;;7.50;5.33;;;;;;;5.85;58.84;95403.13;5086695;28;20272;-67
2022/10/19 03:32:55;;;;;;;7.13;6.23;;;;;;;5.80;58.85;95415.69;5083678;28;20235;-67
2022/10/19 03:35:20;;;;;;;7.77;5.93;;;;;;;5.87;58.86;95409.91;5089374;28;20183;-68
2022/10/19 03:37:45;;;;;;;7.57;6.13;;;;;;;5.91;58.65;95400.09;5080074;28;20265;-68
2022/10/19 03:40:11;;;;;;;14.27;7.13;;;;;;;5.80;58.87;95405.25;5087508;28;20184;-68
2022/10/19 03:42:36;;;;;;;13.77;7.67;;;;;;;5.89;58.59;95394.16;5083069;28;20261;-68
2022/10/19 03:45:02;;;;;;;16.27;7.97;;;;;;;5.99;57.60;95389.94;5085709;28;20208;-67
2022/10/19 03:47:28;;;;;;;13.27;6.70;;;;;;;5.87;58.11;95386.41;5088296;28;20204;-67
2022/10/19 03:52:48;;;;;;;10.47;7.27;;;;;;;6.05;57.86;95379.03;5084023;28;20211;-67
2022/10/19 03:55:15;;;;;;;17.47;8.17;;;;;;;5.87;58.45;95381.19;5089533;28;20215;-68
2022/10/19 03:57:40;;;;;;;13.23;7.87;;;;;;;5.99;58.07;95384.72;5086940;28;20180;-67
2022/10/19 04:00:07;;;;;;;11.33;7.13;;;;;;;6.11;58.01;95393.41;5086681;28;20185;-67
2022/10/19 04:02:33;;;;;;;14.23;7.30;;;;;;;6.12;57.71;95380.25;5089204;28;20187;-67
2022/10/19 04:04:58;;;;;;;11.03;7.10;;;;;;;6.17;57.36;95387.72;5082388;28;20181;-66
2022/10/19 04:07:24;;;;;;;13.13;7.07;;;;;;;5.95;58.24;95385.88;5087819;28;20200;-67
2022/10/19 04:09:49;;;;;;;14.17;7.60;;;;;;;5.86;58.15;95383.94;5087911;28;20268;-65
2022/10/19 04:12:15;;;;;;;12.27;7.90;;;;;;;5.84;58.35;95388.44;5082503;28;20181;-66
2022/10/19 04:14:40;;;;;;;10.70;6.87;;;;;;;5.98;57.91;95377.81;5081995;28;20188;-66
2022/10/19 04:17:06;;;;;;;11.93;7.40;;;;;;;5.96;57.77;95384.91;5089527;28;20191;-67
2022/10/19 04:19:31;;;;;;;15.30;7.97;;;;;;;5.71;58.87;95378.88;5086117;28;20219;-67
2022/10/19 04:21:57;;;;;;;14.50;8.00;;;;;;;5.64;58.87;95379.44;5084505;28;20200;-67
2022/10/19 04:24:23;;;;;;;12.77;7.90;;;;;;;5.81;58.69;95365.19;5091065;28;20188;-67
2022/10/19 04:26:51;;;;;;;16.13;7.70;;;;;;;5.78;58.85;95360.19;5081619;28;20207;-68
2022/10/19 04:29:18;;;;;;;24.40;8.60;;;;;;;5.78;59.43;95373.25;5080443;28;20201;-68
2022/10/19 04:31:45;;;;;;;17.17;8.37;;;;;;;5.54;59.42;95358.44;5086293;28;20184;-69
2022/10/19 04:34:11;;;;;;;11.93;8.33;;;;;;;5.39;60.55;95360.38;5082283;28;20192;-68
2022/10/19 04:36:37;;;;;;;13.07;8.53;;;;;;;5.51;59.88;95366.50;5081449;28;20204;-68
2022/10/19 04:39:03;;;;;;;15.10;8.13;;;;;;;5.72;59.25;95361.44;5088455;28;20180;-68
2022/10/19 04:41:29;;;;;;;16.37;8.23;;;;;;;5.64;59.33;95366.41;5083982;28;20196;-66
2022/10/19 04:43:57;;;;;;;13.27;8.17;;;;;;;5.64;59.16;95354.22;5082343;28;20203;-66
2022/10/19 04:46:23;;;;;;;14.33;8.30;;;;;;;5.62;59.39;95363.94;5086406;28;20185;-67
2022/10/19 04:48:49;;;;;;;14.30;7.63;;;;;;;5.45;60.22;95362.56;5084657;28;20356;-66
2022/10/19 04:51:16;;;;;;;11.57;7.23;;;;;;;5.45;60.17;95362.56;5083711;28;20192;-66
2022/10/19 04:53:43;;;;;;;16.43;7.87;;;;;;;5.47;60.06;95362.44;5082133;28;20235;-66
2022/10/19 04:56:12;;;;;;;14.73;8.13;;;;;;;5.61;59.86;95377.06;5083469;28;20188;-65
2022/10/19 04:58:38;;;;;;;15.13;8.20;;;;;;;5.57;59.79;95371.25;5083452;28;20192;-64
2022/10/19 05:01:11;;;;;;;12.97;8.33;;;;;;;5.54;60.34;95363.66;5078957;28;20233;-65
2022/10/19 05:03:36;;;;;;;14.27;8.83;;;;;;;5.46;60.39;95360.78;5080923;28;20188;-65
2022/10/19 05:06:03;;;;;;;15.90;9.17;;;;;;;5.60;60.05;95371.03;5083580;28;20275;-65
2022/10/19 05:08:28;;;;;;;13.70;8.10;;;;;;;5.43;60.76;95361.84;5084607;28;20240;-65
2022/10/19 05:10:54;;;;;;;16.07;8.77;;;;;;;5.72;60.26;95367.53;5082721;28;20222;-65
2022/10/19 05:13:19;;;;;;;22.03;8.67;;;;;;;5.72;59.82;95361.44;5078407;28;20229;-65
2022/10/19 05:15:54;;;;;;;15.97;9.37;;;;;;;5.83;59.62;95373.72;5059077;28;20189;-65
2022/10/19 05:18:20;;;;;;;16.70;9.93;;;;;;;5.74;58.99;95360.38;5081259;28;20254;-66
2022/10/19 05:20:45;;;;;;;15.00;9.67;;;;;;;5.84;59.06;95362.34;5081702;28;20183;-65
2022/10/19 05:23:10;;;;;;;16.50;10.20;;;;;;;5.68;59.49;95360.84;5085876;28;20192;-66
2022/10/19 05:25:36;;;;;;;26.30;12.20;;;;;;;5.58;59.93;95348.59;5088792;28;20197;-66
2022/10/19 05:28:01;;;;;;;20.03;11.53;;;;;;;5.76;59.68;95347.25;5086346;28;20235;-66
2022/10/19 05:30:27;;;;;;;16.43;10.67;;;;;;;5.92;59.17;95352.97;5088537;28;20262;-66
2022/10/19 05:32:52;;;;;;;14.47;10.57;;;;;;;6.09;58.84;95370.00;5076670;28;20224;-65
2022/10/19 05:35:18;;;;;;;21.27;10.67;;;;;;;5.83;59.64;95368.50;5067970;28;20207;-66
2022/10/19 05:37:43;;;;;;;18.33;9.83;;;;;;;5.49;61.30;95369.19;5085221;28;20188;-66
2022/10/19 05:40:09;;;;;;;15.60;10.67;;;;;;;5.50;61.28;95364.81;5087890;28;20203;-65
2022/10/19 05:42:35;;;;;;;14.33;11.63;;;;;;;5.99;60.06;95374.28;5083639;28;20208;-66
2022/10/19 05:45:00;;;;;;;17.17;11.27;;;;;;;6.15;59.25;95364.34;5084669;28;20194;-68
2022/10/19 05:47:25;;;;;;;21.37;11.33;;;;;;;6.00;59.70;95370.72;5081318;28;20205;-67
2022/10/19 05:49:51;;;;;;;20.77;11.60;;;;;;;6.02;59.69;95365.38;5085445;28;20192;-67
2022/10/19 05:52:16;;;;;;;18.17;11.50;;;;;;;6.28;59.22;95382.53;5083696;28;20188;-67
2022/10/19 05:54:42;;;;;;;17.47;11.00;;;;;;;6.34;58.10;95368.16;5083151;28;20278;-65
2022/10/19 05:57:07;;;;;;;16.73;11.27;;;;;;;6.39;58.56;95373.88;5086843;28;20202;-65
2022/10/19 05:59:33;;;;;;;18.13;11.30;;;;;;;6.41;58.35;95369.34;5078432;28;20275;-66
2022/10/19 06:01:58;;;;;;;17.37;11.20;;;;;;;6.28;59.18;95373.84;5083203;28;20225;-66
2022/10/19 06:04:24;;;;;;;18.13;12.03;;;;;;;6.53;58.46;95371.03;5077619;28;20315;-67
2022/10/19 06:06:49;;;;;;;18.03;13.03;;;;;;;6.71;58.24;95378.38;5082559;28;20184;-64
2022/10/19 06:09:15;;;;;;;19.70;12.93;;;;;;;6.74;57.82;95380.78;5083079;28;20252;-65
2022/10/19 06:11:41;;;;;;;22.27;12.95;;;;;;;6.77;57.77;95376.13;5060680;28;20192;-65
2022/10/19 06:14:11;;;;;;;17.57;12.63;;;;;;;6.84;58.07;95385.16;5081961;28;20184;-65
2022/10/19 06:16:37;;;;;;;19.30;12.75;;;;;;;6.77;57.43;95381.34;5086219;28;20211;-65
2022/10/19 06:19:04;;;;;;;16.40;12.03;;;;;;;6.80;57.53;95398.56;5075489;28;20193;-64
2022/10/19 06:21:30;;;;;;;23.60;14.87;;;;;;;6.95;56.67;95392.16;5080959;28;20550;-65
2022/10/19 06:23:58;;;;;;;17.03;12.37;;;;;;;7.14;56.26;95395.94;5079749;28;20196;-65
2022/10/19 06:26:25;;;;;;;13.47;11.37;;;;;;;7.10;56.45;95402.34;5083258;28;20274;-65
2022/10/19 06:28:53;;;;;;;14.33;11.37;;;;;;;7.03;56.50;95395.00;5084316;28;20205;-65
2022/10/19 06:31:18;;;;;;;16.17;10.77;;;;;;;7.26;55.92;95397.56;5075535;28;20196;-66
2022/10/19 06:33:45;;;;;;;16.50;11.32;;;;;;;7.32;55.58;95389.22;5083066;28;20234;-65
2022/10/19 06:36:19;;;;;;;15.55;11.02;;;;;;;7.45;55.52;95392.50;5082783;28;20198;-65
2022/10/19 06:38:45;;;;;;;17.00;11.73;;;;;;;7.50;55.12;95394.78;5082907;28;20539;-65
2022/10/19 06:41:11;;;;;;;17.58;11.57;;;;;;;7.62;54.95;95401.66;5081157;28;20219;-65
2022/10/19 06:43:37;;;;;;;13.63;10.20;;;;;;;7.81;53.89;95392.28;5079691;28;20185;-64
2022/10/19 06:46:06;;;;;;;12.32;10.02;;;;;;;7.91;53.60;95393.19;5074233;28;20205;-65
2022/10/19 06:48:32;;;;;;;16.23;11.18;;;;;;;7.99;53.23;95393.38;5080638;28;20209;-65
2022/10/19 06:51:00;;;;;;;13.82;10.57;;;;;;;7.99;53.03;95387.31;5077999;28;20457;-65
2022/10/19 06:53:27;;;;;;;15.57;10.82;;;;;;;8.13;52.65;95381.78;5075889;28;20215;-64
2022/10/19 06:55:57;;;;;;;14.97;10.63;;;;;;;8.27;52.57;95373.59;5087617;28;20196;-65
2022/10/19 06:58:24;;;;;;;12.65;10.80;;;;;;;8.36;52.45;95367.56;5088763;28;20180;-65
2022/10/19 07:01:00;;;;;;;13.95;10.98;;;;;;;8.41;52.15;95374.25;5087501;28;20278;-65
2022/10/19 07:03:27;;;;;;;16.37;10.87;;;;;;;8.30;52.54;95365.47;5083533;28;20191;-65
2022/10/19 07:06:00;;;;;;;16.75;10.38;;;;;;;8.35;52.08;95368.53;5086437;28;20197;-65
2022/10/19 07:08:28;;;;;;;13.88;10.13;;;;;;;8.52;51.32;95358.44;5082320;28;20278;-64
2022/10/19 07:10:56;;;;;;;17.63;10.98;;;;;;;8.61;51.09;95355.06;5089621;28;20191;-65
2022/10/19 07:13:22;;;;;;;11.83;9.80;;;;;;;8.82;50.44;95358.44;5082700;28;20291;-65
2022/10/19 07:15:48;;;;;;;15.15;9.88;;;;;;;9.03;49.91;95362.78;5088473;28;20193;-66
2022/10/19 07:18:14;;;;;;;10.10;9.02;;;;;;;8.84;49.32;95351.25;5080875;28;20181;-65
2022/10/19 07:20:39;;;;;;;16.35;9.38;;;;;;;9.08;49.28;95362.38;5085078;28;20187;-64
2022/10/19 07:23:06;;;;;;;15.02;9.55;;;;;;;9.15;48.74;95351.22;5081662;28;20180;-65
2022/10/19 07:25:31;;;;;;;14.32;9.38;;;;;;;9.10;49.10;95360.47;5082849;28;20284;-65
2022/10/19 07:27:57;;;;;;;12.88;8.60;;;;;;;9.21;48.61;95355.09;5085765;28;20288;-64
2022/10/19 07:30:23;;;;;;;12.18;9.68;;;;;;;9.32;49.05;95356.75;5085094;28;20185;-64
2022/10/19 07:32:48;;;;;;;18.58;10.75;;;;;;;9.40;48.57;95354.28;5082250;28;20236;-65
2022/10/19 07:35:14;;;;;;;11.43;9.07;;;;;;;9.55;48.18;95355.56;5083720;28;20204;-66
2022/10/19 07:37:40;;;;;;;13.07;9.30;;;;;;;9.60;47.93;95357.78;5087206;28;20274;-65
2022/10/19 07:40:06;;;;;;;16.40;10.63;;;;;;;9.63;47.71;95347.00;5081909;28;20554;-65
2022/10/19 07:42:31;;;;;;;15.93;10.90;;;;;;;9.71;47.25;95345.34;5064572;28;20247;-66
2022/10/19 07:44:57;;;;;;;17.92;11.27;;;;;;;9.69;47.69;95338.56;5079402;28;20279;-65
2022/10/19 07:47:22;;;;;;;17.38;11.13;;;;;;;9.81;47.25;95329.59;5087255;28;20224;-64
2022/10/19 07:49:48;;;;;;;16.02;10.75;;;;;;;9.91;47.34;95329.56;5087566;28;20196;-65
2022/10/19 07:52:13;;;;;;;21.38;11.25;;;;;;;9.95;47.83;95333.56;5089828;28;20188;-65
2022/10/19 07:54:39;;;;;;;13.93;10.35;;;;;;;9.92;47.62;95326.81;5081130;28;20246;-64
2022/10/19 07:57:04;;;;;;;18.20;11.05;;;;;;;10.05;47.30;95317.78;5085947;28;20282;-63
2022/10/19 07:59:30;;;;;;;16.73;10.52;;;;;;;10.19;47.25;95327.88;5084235;28;20276;-64
2022/10/19 08:01:56;;;;;;;13.98;10.75;;;;;;;10.29;46.42;95322.59;5085575;28;20173;-64
2022/10/19 08:04:21;;;;;;;14.20;10.40;;;;;;;10.35;45.80;95304.47;5082469;28;20191;-64
2022/10/19 08:06:47;;;;;;;14.85;11.15;;;;;;;10.36;45.72;95316.63;5081220;28;20272;-64
2022/10/19 08:09:13;;;;;;;16.23;10.90;;;;;;;10.43;46.23;95309.03;5085078;28;20197;-63
2022/10/19 08:11:39;;;;;;;18.67;11.57;;;;;;;10.64;46.02;95310.59;5079610;28;20196;-64
2022/10/19 08:14:04;;;;;;;16.30;11.48;;;;;;;10.75;45.39;95319.13;5083205;28;20319;-63
2022/10/19 08:16:41;;;;;;;19.17;10.80;;;;;;;10.79;45.83;95320.47;5066111;28;20208;-64
2022/10/19 08:19:09;;;;;;;19.23;12.25;;;;;;;10.98;45.36;95316.09;5085356;28;20183;-64
2022/10/19 08:21:36;;;;;;;14.15;11.18;;;;;;;10.90;44.79;95310.75;5082701;28;20337;-65
2022/10/19 08:24:01;;;;;;;13.35;11.10;;;;;;;11.02;44.75;95310.41;5098280;28;20180;-64
2022/10/19 08:26:29;;;;;;;17.33;11.05;;;;;;;11.35;44.75;95297.59;5083406;28;20176;-66
2022/10/19 08:28:59;;;;;;;19.73;11.65;;;;;;;11.34;44.44;95298.56;5089318;28;20283;-64
2022/10/19 08:31:24;;;;;;;14.23;11.38;;;;;;;11.43;44.10;95302.09;5082450;28;20208;-64
2022/10/19 08:33:50;;;;;;;14.68;10.85;;;;;;;11.39;44.03;95291.06;5067021;28;20332;-64
2022/10/19 08:36:18;;;;;;;15.98;10.90;;;;;;;11.63;43.63;95284.38;5083112;28;20188;-64
2022/10/19 08:38:44;;;;;;;16.00;11.75;;;;;;;11.89;43.22;95292.31;5087780;28;20180;-66
2022/10/19 08:41:28;;;;;;;17.05;10.32;;;;;;;11.99;42.29;95292.25;5081589;28;20180;-66
2022/10/19 08:44:05;;;;;;;16.15;10.73;;;;;;;12.20;41.22;95287.44;5088737;28;20508;-65
2022/10/19 08:47:22;;;;;;;14.63;9.13;;;;;;;12.38;40.92;95283.94;5091371;28;20271;-64
2022/10/19 08:49:47;;;;;;;18.20;9.82;;;;;;;12.46;40.81;95274.25;5008692;28;20198;-66
2022/10/19 08:52:19;;;;;;;17.30;9.65;;;;;;;12.64;42.56;95271.53;4992752;28;20241;-67
2022/10/19 08:54:58;;;;;;;15.35;10.20;;;;;;;12.77;41.55;95279.81;4992250;28;20194;-65
2022/10/19 08:57:46;;;;;;;14.48;8.95;;;;;;;12.82;40.61;95267.97;4992257;28;20190;-65
2022/10/19 09:00:36;;;;;;;15.55;9.18;;;;;;;12.88;40.19;95269.97;4991995;28;20281;-66
2022/10/19 09:03:23;;;;;;;14.55;9.25;;;;;;;12.96;40.86;95276.13;4990970;28;20194;-64
2022/10/19 09:06:00;;;;;;;12.93;8.80;;;;;;;13.00;41.85;95264.25;4990803;28;20203;-66
2022/10/19 09:08:27;;;;;;;10.13;7.32;;;;;;;13.21;40.78;95266.44;4991902;28;20213;-64
2022/10/19 09:10:54;;;;;;;12.30;6.30;;;;;;;13.33;40.26;95261.72;4990969;28;20357;-66
2022/10/19 09:13:37;;;;;;;8.20;6.00;;;;;;;13.51;39.90;95264.22;4991927;28;20203;-67
2022/10/19 09:16:04;;;;;;;8.20;5.38;;;;;;;13.65;40.35;95268.03;4991492;28;20182;-65
2022/10/19 09:18:33;;;;;;;9.30;4.13;;;;;;;13.68;39.48;95254.47;5007803;28;20190;-66
2022/10/19 09:21:26;;;;;;;6.47;4.25;;;;;;;13.85;39.58;95255.31;4990518;28;20183;-64
2022/10/19 09:23:54;;;;;;;6.70;4.13;;;;;;;13.93;39.46;95251.84;4991481;28;20187;-65
2022/10/19 09:26:24;;;;;;;5.57;3.90;;;;;;;13.99;39.37;95248.53;5071024;28;20196;-65
2022/10/19 09:29:17;;;;;;;8.73;3.95;;;;;;;14.15;39.03;95271.47;5086885;28;20249;-65
2022/10/19 09:31:43;;;;;;;7.63;4.00;;;;;;;14.17;39.31;95256.28;5091159;28;20272;-65
2022/10/19 09:34:33;;;;;;;6.03;4.32;;;;;;;14.29;38.98;95263.66;5086211;28;20338;-64
2022/10/19 09:36:59;;;;;;;7.68;4.50;;;;;;;14.38;39.15;95248.63;5084692;28;20192;-65
2022/10/19 09:39:26;;;;;;;7.03;4.15;;;;;;;14.51;39.80;95250.72;5073386;28;20183;-63
2022/10/19 09:41:55;;;;;;;7.03;4.20;;;;;;;14.74;39.16;95259.59;5082478;28;20188;-66
2022/10/19 09:44:22;;;;;;;5.57;4.00;;;;;;;15.00;38.24;95256.69;5086502;28;20227;-65
2022/10/19 09:46:53;;;;;;;6.43;3.53;;;;;;;15.12;37.56;95253.66;5077905;28;20275;-64
2022/10/19 09:49:37;;;;;;;6.90;4.03;;;;;;;15.17;36.32;95254.78;5081841;28;20192;-64
2022/10/19 09:52:03;;;;;;;6.00;3.88;;;;;;;15.12;36.35;95261.59;5080324;28;20184;-64
2022/10/19 09:54:37;;;;;;;4.95;3.67;;;;;;;15.12;35.96;95253.66;5079785;28;20246;-63
2022/10/19 09:57:03;;;;;;;5.18;3.20;;;;;;;15.26;36.61;95254.72;5080375;28;20329;-63
2022/10/19 09:59:34;;;;;;;4.93;3.30;;;;;;;15.39;36.13;95250.50;5085012;28;20268;-63
2022/10/19 10:02:14;;;;;;;6.18;3.15;;;;;;;15.55;36.21;95246.09;5086015;28;20192;-63
2022/10/19 10:04:39;;;;;;;5.53;3.40;;;;;;;15.63;36.38;95244.19;5078926;28;20218;-63
2022/10/19 10:07:05;;;;;;;5.88;3.85;;;;;;;15.87;35.31;95240.56;5078691;28;20263;-64
2022/10/19 10:09:31;;;;;;;6.57;3.80;;;;;;;15.95;35.23;95242.31;5082081;28;20208;-64
2022/10/19 10:11:58;;;;;;;9.25;4.13;;;;;;;16.00;35.37;95236.47;5080456;28;20203;-64
2022/10/19 10:14:38;;;;;;;9.25;3.47;;;;;;;16.02;34.43;95234.47;5085079;28;20180;-63
2022/10/19 10:17:12;;;;;;;6.18;3.80;;;;;;;16.04;34.64;95228.00;5087581;28;20212;-63
2022/10/19 10:20:07;;;;;;;6.93;3.63;;;;;;;15.99;33.79;95224.22;5082777;28;20188;-64
2022/10/19 10:22:35;;;;;;;4.60;2.90;;;;;;;16.11;34.10;95214.81;5006303;28;20225;-63
2022/10/19 10:25:10;;;;;;;3.95;3.45;;;;;;;16.32;34.85;95209.63;5037459;28;20198;-63
2022/10/19 10:27:37;;;;;;;8.45;3.47;;;;;;;16.44;34.27;95201.19;5009844;28;20221;-63
2022/10/19 10:30:09;;;;;;;6.40;3.30;;;;;;;16.60;33.62;95210.81;5023803;28;20369;-63
2022/10/19 10:32:44;;;;;;;5.45;3.03;;;;;;;16.76;33.28;95194.69;5014178;28;20245;-63
2022/10/19 10:35:20;;;;;;;7.07;3.38;;;;;;;16.71;33.32;95191.78;5014026;28;20213;-63
2022/10/19 10:37:47;;;;;;;6.13;3.55;;;;;;;16.73;33.28;95181.75;5014409;28;20182;-64
2022/10/19 10:40:23;;;;;;;4.90;2.88;;;;;;;16.92;32.86;95183.03;5029239;28;20205;-63
2022/10/19 10:42:50;;;;;;;5.55;3.72;;;;;;;17.29;32.66;95179.34;5026248;28;20292;-63
2022/10/19 10:45:39;;;;;;;8.10;3.70;;;;;;;17.36;32.34;95182.09;5025786;28;20194;-63
2022/10/19 10:48:27;;;;;;;4.55;3.58;;;;;;;17.33;31.83;95179.81;5007796;28;20228;-63
2022/10/19 10:50:54;;;;;;;5.57;3.83;;;;;;;17.40;31.61;95167.41;5022299;28;20190;-64
2022/10/19 10:53:42;;;;;;;8.77;3.85;;;;;;;17.54;31.25;95163.88;5013710;28;20205;-63
2022/10/19 10:56:22;;;;;;;4.57;3.20;;;;;;;17.64;31.15;95167.03;5025552;28;20209;-64
2022/10/19 10:58:57;;;;;;;5.55;3.30;;;;;;;17.76;30.72;95158.53;5031209;28;20217;-64
2022/10/19 11:01:28;;;;;;;6.95;3.40;;;;;;;17.92;30.95;95152.13;5086895;28;20194;-63
2022/10/19 11:04:03;;;;;;;6.80;3.53;;;;;;;17.97;30.85;95145.19;5086051;28;20197;-63
2022/10/19 11:06:33;;;;;;;3.33;3.03;;;;;;;18.21;29.68;95145.75;5081631;28;20272;-64
2022/10/19 11:09:25;;;;;;;6.57;3.78;;;;;;;18.28;29.70;95149.25;5083489;28;20272;-64
2022/10/19 11:11:54;;;;;;;5.00;3.42;;;;;;;18.33;29.73;95138.84;5082130;28;20184;-64
2022/10/19 11:14:32;;;;;;;7.03;3.15;;;;;;;18.67;28.73;95145.16;5085689;28;20240;-66
2022/10/19 11:17:04;;;;;;;8.65;3.78;;;;;;;18.67;30.24;95129.19;5088718;28;20226;-68
2022/10/19 11:19:38;;;;;;;5.32;3.30;;;;;;;18.80;28.22;95134.59;5087179;28;20211;-67
2022/10/19 11:22:15;;;;;;;3.67;3.38;;;;;;;19.02;27.68;95124.63;5083878;28;20188;-66
2022/10/19 11:24:59;;;;;;;6.03;3.20;;;;;;;19.04;27.21;95119.09;5081442;28;20254;-68
2022/10/19 11:27:59;;;;;;;4.57;3.10;;;;;;;19.08;27.20;95115.00;5086761;28;20184;-68
2022/10/19 11:30:25;;;;;;;6.15;3.38;;;;;;;19.21;26.05;95117.69;5082156;28;20317;-65
2022/10/19 11:33:12;;;;;;;5.50;2.95;;;;;;;19.50;24.49;95121.00;5095727;28;20263;-65
2022/10/19 11:36:13;;;;;;;4.28;2.90;;;;;;;21.42;22.85;95122.31;5085440;28;20197;-66
2022/10/19 11:39:23;;;;;;;4.60;2.67;;;;;;;25.40;17.17;95106.84;5029249;28;20193;-63
2022/10/19 11:42:00;;;;;;;4.68;3.00;;;;;;;24.01;18.40;95106.91;5038105;28;20214;-65
2022/10/19 11:44:44;;;;;;;7.90;3.10;;;;;;;22.75;19.69;95105.00;5037914;28;20609;-65
2022/10/19 11:47:28;;;;;;;6.28;2.95;;;;;;;22.60;20.90;95099.19;5028346;28;20250;-65